FBT9Y LFQV-LFPB
Flight info
| Callsign | FBT9Y |
|---|---|
| Flight time | N/A |
| Altitude | 21000 |
| Route | RENSA |
| Aircraft | C700/M-SBDGHM1RWXY/LB2 |
Departure
| Time | N/A |
|---|---|
| Airport | Charleville-Mézières Ardennes-Etienne Riché Airfield (LFQV) |
Arrival
| Time | 2026-04-27 22:51 |
|---|---|
| Airport | Paris-Le Bourget International Airport (LFPB) |
| Time | Latitude | Longitude | Altitude | Speed | Heading |
|---|---|---|---|---|---|
| 2026-04-27 22:26 | 49.46832 | 4.23904 | 19992 ft | 376 kts | 236° |
| 2026-04-27 22:26 | 49.45310 | 4.20623 | 19319 ft | 378 kts | 236° |
| 2026-04-27 22:27 | 49.43790 | 4.17369 | 18558 ft | 371 kts | 236° |
| 2026-04-27 22:27 | 49.42287 | 4.14170 | 17669 ft | 368 kts | 236° |
| 2026-04-27 22:27 | 49.40793 | 4.10980 | 16645 ft | 367 kts | 236° |
| 2026-04-27 22:27 | 49.39313 | 4.07819 | 15636 ft | 362 kts | 236° |
| 2026-04-27 22:28 | 49.38052 | 4.04517 | 14651 ft | 356 kts | 246° |
| 2026-04-27 22:28 | 49.37214 | 4.00972 | 13685 ft | 353 kts | 255° |
| 2026-04-27 22:28 | 49.36539 | 3.97434 | 13468 ft | 352 kts | 250° |
| 2026-04-27 22:28 | 49.35448 | 3.94053 | 13223 ft | 349 kts | 242° |
| 2026-04-27 22:29 | 49.34309 | 3.90739 | 12956 ft | 354 kts | 244° |
| 2026-04-27 22:29 | 49.33223 | 3.87369 | 12684 ft | 350 kts | 245° |
| 2026-04-27 22:29 | 49.32150 | 3.84077 | 12413 ft | 350 kts | 244° |
| 2026-04-27 22:29 | 49.31029 | 3.80760 | 12139 ft | 351 kts | 243° |
| 2026-04-27 22:30 | 49.29911 | 3.77449 | 11867 ft | 348 kts | 244° |
| 2026-04-27 22:30 | 49.28818 | 3.74157 | 11598 ft | 347 kts | 244° |
| 2026-04-27 22:30 | 49.27720 | 3.70859 | 11326 ft | 348 kts | 244° |
| 2026-04-27 22:30 | 49.26772 | 3.67481 | 11133 ft | 343 kts | 254° |
| 2026-04-27 22:31 | 49.26247 | 3.63916 | 11132 ft | 346 kts | 259° |
| 2026-04-27 22:31 | 49.25745 | 3.60316 | 11131 ft | 345 kts | 258° |
| 2026-04-27 22:31 | 49.25213 | 3.56737 | 11131 ft | 345 kts | 258° |
| 2026-04-27 22:31 | 49.24695 | 3.53141 | 11134 ft | 347 kts | 258° |
| 2026-04-27 22:32 | 49.24191 | 3.49536 | 11129 ft | 346 kts | 258° |
| 2026-04-27 22:32 | 49.23679 | 3.45948 | 11129 ft | 344 kts | 258° |
| 2026-04-27 22:32 | 49.23161 | 3.42372 | 11136 ft | 345 kts | 258° |
| 2026-04-27 22:32 | 49.22642 | 3.38779 | 11136 ft | 347 kts | 258° |
| 2026-04-27 22:33 | 49.22124 | 3.35179 | 11130 ft | 346 kts | 258° |
| 2026-04-27 22:33 | 49.21605 | 3.31595 | 11131 ft | 345 kts | 258° |
| 2026-04-27 22:33 | 49.21083 | 3.28001 | 11133 ft | 347 kts | 258° |
| 2026-04-27 22:33 | 49.20560 | 3.24402 | 11136 ft | 346 kts | 258° |
| 2026-04-27 22:34 | 49.20041 | 3.20833 | 11129 ft | 345 kts | 258° |
| 2026-04-27 22:34 | 49.19514 | 3.17237 | 11133 ft | 347 kts | 258° |
| 2026-04-27 22:34 | 49.18986 | 3.13633 | 11138 ft | 346 kts | 258° |
| 2026-04-27 22:34 | 49.18468 | 3.10100 | 11140 ft | 346 kts | 258° |
| 2026-04-27 22:35 | 49.17940 | 3.06510 | 11137 ft | 347 kts | 258° |
| 2026-04-27 22:35 | 49.17409 | 3.02908 | 11143 ft | 347 kts | 258° |
| 2026-04-27 22:35 | 49.16878 | 2.99319 | 11138 ft | 345 kts | 258° |
| 2026-04-27 22:35 | 49.16348 | 2.95746 | 11139 ft | 345 kts | 258° |
| 2026-04-27 22:36 | 49.16034 | 2.93629 | 11138 ft | 346 kts | 258° |
| 2026-04-27 22:36 | 49.15448 | 2.89686 | 11140 ft | 348 kts | 257° |
| 2026-04-27 22:36 | 49.14912 | 2.86090 | 11146 ft | 346 kts | 257° |
| 2026-04-27 22:36 | 49.14377 | 2.82512 | 11139 ft | 345 kts | 257° |
| 2026-04-27 22:37 | 49.13842 | 2.78937 | 11141 ft | 346 kts | 257° |
| 2026-04-27 22:37 | 49.13304 | 2.75350 | 11144 ft | 347 kts | 257° |
| 2026-04-27 22:37 | 49.12762 | 2.71753 | 11143 ft | 347 kts | 257° |
| 2026-04-27 22:37 | 49.12222 | 2.68171 | 11144 ft | 345 kts | 257° |
| 2026-04-27 22:38 | 49.11682 | 2.64602 | 11142 ft | 346 kts | 257° |
| 2026-04-27 22:38 | 49.11140 | 2.61020 | 11146 ft | 347 kts | 257° |
| 2026-04-27 22:38 | 49.10770 | 2.57400 | 11046 ft | 336 kts | 267° |
| 2026-04-27 22:38 | 49.10743 | 2.53986 | 10562 ft | 308 kts | 270° |
| 2026-04-27 22:39 | 49.10704 | 2.50857 | 10166 ft | 284 kts | 269° |
| 2026-04-27 22:39 | 49.10645 | 2.47867 | 9248 ft | 282 kts | 269° |
| 2026-04-27 22:39 | 49.10589 | 2.44894 | 8381 ft | 279 kts | 269° |
| 2026-04-27 22:39 | 49.10530 | 2.41952 | 7594 ft | 275 kts | 269° |
| 2026-04-27 22:40 | 49.10468 | 2.39087 | 7133 ft | 268 kts | 269° |
| 2026-04-27 22:40 | 49.10404 | 2.36217 | 6788 ft | 274 kts | 269° |
| 2026-04-27 22:40 | 49.10338 | 2.33299 | 6459 ft | 275 kts | 269° |
| 2026-04-27 22:40 | 49.10271 | 2.30391 | 6125 ft | 274 kts | 269° |
| 2026-04-27 22:41 | 49.10203 | 2.27493 | 5789 ft | 272 kts | 269° |
| 2026-04-27 22:41 | 49.10135 | 2.24620 | 5461 ft | 271 kts | 269° |
| 2026-04-27 22:41 | 49.10068 | 2.21750 | 5138 ft | 269 kts | 269° |
| 2026-04-27 22:41 | 49.09694 | 2.18973 | 4789 ft | 270 kts | 245° |
| 2026-04-27 22:42 | 49.08509 | 2.16777 | 4421 ft | 270 kts | 216° |
| 2026-04-27 22:42 | 49.06791 | 2.15692 | 4074 ft | 269 kts | 191° |
| 2026-04-27 22:42 | 49.04966 | 2.15365 | 3759 ft | 267 kts | 185° |
| 2026-04-27 22:42 | 49.03109 | 2.14924 | 3427 ft | 266 kts | 191° |
| 2026-04-27 22:43 | 49.01344 | 2.14343 | 3105 ft | 257 kts | 192° |
| 2026-04-27 22:43 | 48.99662 | 2.13756 | 2991 ft | 229 kts | 192° |
| 2026-04-27 22:43 | 48.98248 | 2.13252 | 2998 ft | 195 kts | 192° |
| 2026-04-27 22:43 | 48.96961 | 2.12792 | 2996 ft | 189 kts | 192° |
| 2026-04-27 22:44 | 48.95674 | 2.12333 | 2997 ft | 190 kts | 192° |
| 2026-04-27 22:44 | 48.94391 | 2.11874 | 2997 ft | 189 kts | 192° |
| 2026-04-27 22:44 | 48.93108 | 2.11422 | 2992 ft | 189 kts | 190° |
| 2026-04-27 22:44 | 48.91838 | 2.11702 | 2971 ft | 186 kts | 150° |
| 2026-04-27 22:45 | 48.91004 | 2.13141 | 2986 ft | 183 kts | 116° |
| 2026-04-27 22:45 | 48.90487 | 2.14918 | 2995 ft | 184 kts | 112° |
| 2026-04-27 22:45 | 48.89985 | 2.16711 | 3001 ft | 185 kts | 112° |
| 2026-04-27 22:45 | 48.89864 | 2.18609 | 2975 ft | 183 kts | 76° |
| 2026-04-27 22:46 | 48.90445 | 2.20310 | 2987 ft | 182 kts | 61° |
| 2026-04-27 22:46 | 48.90999 | 2.22052 | 2935 ft | 185 kts | 66° |
| 2026-04-27 22:46 | 48.91509 | 2.23864 | 2713 ft | 185 kts | 67° |
| 2026-04-27 22:46 | 48.91828 | 2.25042 | 2539 ft | 180 kts | 68° |
| 2026-04-27 22:47 | 48.92279 | 2.26755 | 2303 ft | 171 kts | 67° |
| 2026-04-27 22:47 | 48.92729 | 2.28407 | 2076 ft | 162 kts | 67° |
| 2026-04-27 22:47 | 48.93138 | 2.29936 | 1861 ft | 152 kts | 67° |
| 2026-04-27 22:47 | 48.93517 | 2.31351 | 1678 ft | 140 kts | 67° |
| 2026-04-27 22:48 | 48.93876 | 2.32693 | 1484 ft | 134 kts | 66° |
| 2026-04-27 22:48 | 48.94218 | 2.33973 | 1308 ft | 126 kts | 66° |
| 2026-04-27 22:48 | 48.94539 | 2.35180 | 1146 ft | 121 kts | 66° |
| 2026-04-27 22:48 | 48.94853 | 2.36366 | 1009 ft | 122 kts | 65° |
| 2026-04-27 22:49 | 48.95178 | 2.37561 | 886 ft | 123 kts | 65° |
| 2026-04-27 22:49 | 48.95503 | 2.38771 | 750 ft | 124 kts | 65° |
| 2026-04-27 22:49 | 48.95840 | 2.39989 | 629 ft | 125 kts | 64° |
| 2026-04-27 22:49 | 48.96174 | 2.41223 | 420 ft | 128 kts | 65° |
| 2026-04-27 22:50 | 48.96506 | 2.42469 | 215 ft | 125 kts | 65° |
| 2026-04-27 22:50 | 48.96803 | 2.43576 | 177 ft | 100 kts | 65° |
| 2026-04-27 22:50 | 48.97029 | 2.44418 | 187 ft | 72 kts | 68° |
| 2026-04-27 22:50 | 48.97198 | 2.45054 | 208 ft | 59 kts | 67° |
| 2026-04-27 22:51 | 48.97339 | 2.45581 | 222 ft | 40 kts | 67° |
| 2026-04-27 22:51 | 48.97373 | 2.45814 | 223 ft | 18 kts | 111° |
| 2026-04-27 22:51 | 48.97259 | 2.45871 | 220 ft | 22 kts | 209° |
| 2026-04-27 22:51 | 48.97168 | 2.45674 | 217 ft | 25 kts | 248° |
| 2026-04-27 22:52 | 48.97098 | 2.45407 | 211 ft | 30 kts | 248° |
| 2026-04-27 22:52 | 48.97019 | 2.45116 | 201 ft | 25 kts | 247° |
| 2026-04-27 22:52 | 48.96940 | 2.44999 | 196 ft | 17 kts | 169° |
| 2026-04-27 22:52 | 48.96809 | 2.45044 | 189 ft | 22 kts | 167° |
| 2026-04-27 22:53 | 48.96726 | 2.45073 | 189 ft | 0 kts | 167° |
| 2026-04-27 22:54 | 48.96718 | 2.45076 | 191 ft | 4 kts | 167° |
| 2026-04-27 22:54 | 48.96658 | 2.45096 | 182 ft | 13 kts | 167° |
| 2026-04-27 22:55 | 48.96556 | 2.45109 | 180 ft | 17 kts | 204° |
| 2026-04-27 22:55 | 48.96485 | 2.44954 | 176 ft | 21 kts | 258° |
| 2026-04-27 22:55 | 48.96450 | 2.44727 | 172 ft | 22 kts | 246° |
| 2026-04-27 22:55 | 48.96344 | 2.44523 | 166 ft | 20 kts | 229° |
| 2026-04-27 22:56 | 48.96219 | 2.44424 | 165 ft | 22 kts | 205° |
| 2026-04-27 22:56 | 48.96067 | 2.44317 | 158 ft | 26 kts | 199° |
| 2026-04-27 22:56 | 48.95940 | 2.44249 | 154 ft | 13 kts | 147° |
| 2026-04-27 22:56 | 48.95894 | 2.44346 | 153 ft | 10 kts | 176° |
| 2026-04-27 22:57 | 48.95886 | 2.44342 | 153 ft | 0 kts | 203° |